sensor_id;sensor_type;location;lat;lon;timestamp;P1;durP1;ratioP1;P2;durP2;ratioP2
52574;SDS011;38468;48.114;-1.684;2022-12-18T00:01:00;38.53;;;20.92;;
52574;SDS011;38468;48.114;-1.684;2022-12-18T00:03:05;39.08;;;20.65;;
52574;SDS011;38468;48.114;-1.684;2022-12-18T00:05:06;33.92;;;20.70;;
52574;SDS011;38468;48.114;-1.684;2022-12-18T00:07:07;32.13;;;20.17;;
52574;SDS011;38468;48.114;-1.684;2022-12-18T00:09:08;40.47;;;20.50;;
52574;SDS011;38468;48.114;-1.684;2022-12-18T00:11:28;33.95;;;20.23;;
52574;SDS011;38468;48.114;-1.684;2022-12-18T00:13:30;30.50;;;18.05;;
52574;SDS011;38468;48.114;-1.684;2022-12-18T00:15:33;38.40;;;20.50;;
52574;SDS011;38468;48.114;-1.684;2022-12-18T00:17:34;36.40;;;20.27;;
52574;SDS011;38468;48.114;-1.684;2022-12-18T00:19:35;39.78;;;21.75;;
52574;SDS011;38468;48.114;-1.684;2022-12-18T00:21:36;35.28;;;21.20;;
52574;SDS011;38468;48.114;-1.684;2022-12-18T00:23:37;32.72;;;19.52;;
52574;SDS011;38468;48.114;-1.684;2022-12-18T00:25:38;38.95;;;21.77;;
52574;SDS011;38468;48.114;-1.684;2022-12-18T00:27:39;32.97;;;20.27;;
52574;SDS011;38468;48.114;-1.684;2022-12-18T00:29:39;37.55;;;21.23;;
52574;SDS011;38468;48.114;-1.684;2022-12-18T00:31:40;34.50;;;20.15;;
52574;SDS011;38468;48.114;-1.684;2022-12-18T00:33:42;36.97;;;21.55;;
52574;SDS011;38468;48.114;-1.684;2022-12-18T00:35:43;34.13;;;21.45;;
52574;SDS011;38468;48.114;-1.684;2022-12-18T00:37:44;33.22;;;19.58;;
52574;SDS011;38468;48.114;-1.684;2022-12-18T00:39:44;31.45;;;18.60;;
52574;SDS011;38468;48.114;-1.684;2022-12-18T00:41:45;36.03;;;20.92;;
52574;SDS011;38468;48.114;-1.684;2022-12-18T00:44:05;29.90;;;18.77;;
52574;SDS011;38468;48.114;-1.684;2022-12-18T00:46:07;34.50;;;20.98;;
52574;SDS011;38468;48.114;-1.684;2022-12-18T00:48:08;34.50;;;19.85;;
52574;SDS011;38468;48.114;-1.684;2022-12-18T00:50:08;31.77;;;19.33;;
52574;SDS011;38468;48.114;-1.684;2022-12-18T00:52:09;31.60;;;19.52;;
52574;SDS011;38468;48.114;-1.684;2022-12-18T00:54:10;32.67;;;18.70;;
52574;SDS011;38468;48.114;-1.684;2022-12-18T00:56:11;33.45;;;19.83;;
52574;SDS011;38468;48.114;-1.684;2022-12-18T00:58:12;38.40;;;21.65;;
52574;SDS011;38468;48.114;-1.684;2022-12-18T01:00:14;29.88;;;18.77;;
52574;SDS011;38468;48.114;-1.684;2022-12-18T01:02:15;36.28;;;20.08;;
52574;SDS011;38468;48.114;-1.684;2022-12-18T01:04:16;33.00;;;19.98;;
52574;SDS011;38468;48.114;-1.684;2022-12-18T01:06:17;36.35;;;19.85;;
52574;SDS011;38468;48.114;-1.684;2022-12-18T01:08:17;32.50;;;20.80;;
52574;SDS011;38468;48.114;-1.684;2022-12-18T01:10:18;31.73;;;20.15;;
52574;SDS011;38468;48.114;-1.684;2022-12-18T01:12:19;36.53;;;20.92;;
52574;SDS011;38468;48.114;-1.684;2022-12-18T01:14:20;34.22;;;20.10;;
52574;SDS011;38468;48.114;-1.684;2022-12-18T01:16:21;30.10;;;18.42;;
52574;SDS011;38468;48.114;-1.684;2022-12-18T01:18:22;33.85;;;21.40;;
52574;SDS011;38468;48.114;-1.684;2022-12-18T01:20:23;32.75;;;21.17;;
52574;SDS011;38468;48.114;-1.684;2022-12-18T01:22:24;32.72;;;19.10;;
52574;SDS011;38468;48.114;-1.684;2022-12-18T01:24:24;32.90;;;18.95;;
52574;SDS011;38468;48.114;-1.684;2022-12-18T01:26:26;41.20;;;19.80;;
52574;SDS011;38468;48.114;-1.684;2022-12-18T01:28:29;35.67;;;20.35;;
52574;SDS011;38468;48.114;-1.684;2022-12-18T01:30:30;35.42;;;20.60;;
52574;SDS011;38468;48.114;-1.684;2022-12-18T01:32:31;31.05;;;19.45;;
52574;SDS011;38468;48.114;-1.684;2022-12-18T01:34:32;36.33;;;20.02;;
52574;SDS011;38468;48.114;-1.684;2022-12-18T01:36:35;36.40;;;17.98;;
52574;SDS011;38468;48.114;-1.684;2022-12-18T01:38:37;34.78;;;21.60;;
52574;SDS011;38468;48.114;-1.684;2022-12-18T01:40:37;27.25;;;18.40;;
52574;SDS011;38468;48.114;-1.684;2022-12-18T01:42:38;32.67;;;19.75;;
52574;SDS011;38468;48.114;-1.684;2022-12-18T01:46:57;40.55;;;21.30;;
52574;SDS011;38468;48.114;-1.684;2022-12-18T01:48:59;31.42;;;19.50;;
52574;SDS011;38468;48.114;-1.684;2022-12-18T01:51:01;32.53;;;20.52;;
52574;SDS011;38468;48.114;-1.684;2022-12-18T01:53:22;35.00;;;21.77;;
52574;SDS011;38468;48.114;-1.684;2022-12-18T01:55:24;37.97;;;19.83;;
52574;SDS011;38468;48.114;-1.684;2022-12-18T01:57:28;39.05;;;20.95;;
52574;SDS011;38468;48.114;-1.684;2022-12-18T01:59:29;35.70;;;20.50;;
52574;SDS011;38468;48.114;-1.684;2022-12-18T02:01:32;38.80;;;20.05;;
52574;SDS011;38468;48.114;-1.684;2022-12-18T02:03:34;34.22;;;19.88;;
52574;SDS011;38468;48.114;-1.684;2022-12-18T02:09:50;32.65;;;20.15;;
52574;SDS011;38468;48.114;-1.684;2022-12-18T02:16:50;34.47;;;19.60;;
52574;SDS011;38468;48.114;-1.684;2022-12-18T02:19:20;35.13;;;19.13;;
52574;SDS011;38468;48.114;-1.684;2022-12-18T02:21:34;33.08;;;19.98;;
52574;SDS011;38468;48.114;-1.684;2022-12-18T02:24:05;35.95;;;19.48;;
52574;SDS011;38468;48.114;-1.684;2022-12-18T02:26:43;34.72;;;19.92;;
52574;SDS011;38468;48.114;-1.684;2022-12-18T02:30:53;36.67;;;20.98;;
52574;SDS011;38468;48.114;-1.684;2022-12-18T02:32:56;35.70;;;20.88;;
52574;SDS011;38468;48.114;-1.684;2022-12-18T02:34:59;38.83;;;20.90;;
52574;SDS011;38468;48.114;-1.684;2022-12-18T02:37:03;32.63;;;19.25;;
52574;SDS011;38468;48.114;-1.684;2022-12-18T02:39:08;31.17;;;19.60;;
52574;SDS011;38468;48.114;-1.684;2022-12-18T02:41:11;34.97;;;21.02;;
52574;SDS011;38468;48.114;-1.684;2022-12-18T02:43:13;33.03;;;20.95;;
52574;SDS011;38468;48.114;-1.684;2022-12-18T02:45:15;31.83;;;20.35;;
52574;SDS011;38468;48.114;-1.684;2022-12-18T02:47:17;33.53;;;19.70;;
52574;SDS011;38468;48.114;-1.684;2022-12-18T02:49:34;39.67;;;20.50;;
52574;SDS011;38468;48.114;-1.684;2022-12-18T02:52:04;36.72;;;20.52;;
52574;SDS011;38468;48.114;-1.684;2022-12-18T02:54:23;29.58;;;18.83;;
52574;SDS011;38468;48.114;-1.684;2022-12-18T02:56:45;36.60;;;19.58;;
52574;SDS011;38468;48.114;-1.684;2022-12-18T03:00:59;34.67;;;20.25;;
52574;SDS011;38468;48.114;-1.684;2022-12-18T03:03:23;40.15;;;20.70;;
52574;SDS011;38468;48.114;-1.684;2022-12-18T03:05:31;33.15;;;19.95;;
52574;SDS011;38468;48.114;-1.684;2022-12-18T03:07:35;33.58;;;20.30;;
52574;SDS011;38468;48.114;-1.684;2022-12-18T03:09:57;31.23;;;18.75;;
52574;SDS011;38468;48.114;-1.684;2022-12-18T03:12:06;41.53;;;21.90;;
52574;SDS011;38468;48.114;-1.684;2022-12-18T03:14:23;38.55;;;20.67;;
52574;SDS011;38468;48.114;-1.684;2022-12-18T03:16:28;36.70;;;21.38;;
52574;SDS011;38468;48.114;-1.684;2022-12-18T03:20:43;32.60;;;18.02;;
52574;SDS011;38468;48.114;-1.684;2022-12-18T03:22:46;32.70;;;19.98;;
52574;SDS011;38468;48.114;-1.684;2022-12-18T03:24:51;32.97;;;19.45;;
52574;SDS011;38468;48.114;-1.684;2022-12-18T03:26:53;34.65;;;20.67;;
52574;SDS011;38468;48.114;-1.684;2022-12-18T03:28:59;37.10;;;21.23;;
52574;SDS011;38468;48.114;-1.684;2022-12-18T03:31:31;33.05;;;20.63;;
52574;SDS011;38468;48.114;-1.684;2022-12-18T03:33:41;38.10;;;22.35;;
52574;SDS011;38468;48.114;-1.684;2022-12-18T03:36:05;38.63;;;20.05;;
52574;SDS011;38468;48.114;-1.684;2022-12-18T03:38:06;34.42;;;20.98;;
52574;SDS011;38468;48.114;-1.684;2022-12-18T03:40:07;32.85;;;19.67;;
52574;SDS011;38468;48.114;-1.684;2022-12-18T03:47:08;33.50;;;20.17;;
52574;SDS011;38468;48.114;-1.684;2022-12-18T03:49:41;36.30;;;20.40;;
52574;SDS011;38468;48.114;-1.684;2022-12-18T03:52:14;32.92;;;19.70;;
52574;SDS011;38468;48.114;-1.684;2022-12-18T03:54:20;33.05;;;19.83;;
52574;SDS011;38468;48.114;-1.684;2022-12-18T03:56:22;37.73;;;20.17;;
52574;SDS011;38468;48.114;-1.684;2022-12-18T03:58:25;33.92;;;18.65;;
52574;SDS011;38468;48.114;-1.684;2022-12-18T04:00:28;31.08;;;19.20;;
52574;SDS011;38468;48.114;-1.684;2022-12-18T04:02:30;34.75;;;20.00;;
52574;SDS011;38468;48.114;-1.684;2022-12-18T04:04:33;33.10;;;19.17;;
52574;SDS011;38468;48.114;-1.684;2022-12-18T04:06:36;30.20;;;19.42;;
52574;SDS011;38468;48.114;-1.684;2022-12-18T04:10:39;36.60;;;18.58;;
52574;SDS011;38468;48.114;-1.684;2022-12-18T04:12:40;31.52;;;18.92;;
52574;SDS011;38468;48.114;-1.684;2022-12-18T04:14:41;31.27;;;18.65;;
52574;SDS011;38468;48.114;-1.684;2022-12-18T04:16:42;30.75;;;18.23;;
52574;SDS011;38468;48.114;-1.684;2022-12-18T04:18:42;33.70;;;19.17;;
52574;SDS011;38468;48.114;-1.684;2022-12-18T04:20:43;30.27;;;19.05;;
52574;SDS011;38468;48.114;-1.684;2022-12-18T04:22:44;34.83;;;19.60;;
52574;SDS011;38468;48.114;-1.684;2022-12-18T04:24:45;29.90;;;18.50;;
52574;SDS011;38468;48.114;-1.684;2022-12-18T04:26:46;30.70;;;19.17;;
52574;SDS011;38468;48.114;-1.684;2022-12-18T04:28:46;30.55;;;18.75;;
52574;SDS011;38468;48.114;-1.684;2022-12-18T04:30:47;30.23;;;19.83;;
52574;SDS011;38468;48.114;-1.684;2022-12-18T04:32:47;29.20;;;19.10;;
52574;SDS011;38468;48.114;-1.684;2022-12-18T04:34:48;31.92;;;18.58;;
52574;SDS011;38468;48.114;-1.684;2022-12-18T04:36:49;33.92;;;18.40;;
52574;SDS011;38468;48.114;-1.684;2022-12-18T04:38:49;34.45;;;21.35;;
52574;SDS011;38468;48.114;-1.684;2022-12-18T04:40:50;31.08;;;19.30;;
52574;SDS011;38468;48.114;-1.684;2022-12-18T04:42:51;32.45;;;19.95;;
52574;SDS011;38468;48.114;-1.684;2022-12-18T04:44:51;26.20;;;18.67;;
52574;SDS011;38468;48.114;-1.684;2022-12-18T04:46:52;30.48;;;18.90;;
52574;SDS011;38468;48.114;-1.684;2022-12-18T04:48:52;36.22;;;19.50;;
52574;SDS011;38468;48.114;-1.684;2022-12-18T04:50:53;36.55;;;20.52;;
52574;SDS011;38468;48.114;-1.684;2022-12-18T04:52:54;30.77;;;18.55;;
52574;SDS011;38468;48.114;-1.684;2022-12-18T04:54:55;36.22;;;18.73;;
52574;SDS011;38468;48.114;-1.684;2022-12-18T04:56:55;29.90;;;18.83;;
52574;SDS011;38468;48.114;-1.684;2022-12-18T04:58:56;34.63;;;19.35;;
52574;SDS011;38468;48.114;-1.684;2022-12-18T05:00:56;33.80;;;20.23;;
52574;SDS011;38468;48.114;-1.684;2022-12-18T05:02:57;33.35;;;19.65;;
52574;SDS011;38468;48.114;-1.684;2022-12-18T05:05:02;32.00;;;18.83;;
52574;SDS011;38468;48.114;-1.684;2022-12-18T05:07:03;28.27;;;18.48;;
52574;SDS011;38468;48.114;-1.684;2022-12-18T05:09:03;31.75;;;19.17;;
52574;SDS011;38468;48.114;-1.684;2022-12-18T05:11:05;31.98;;;19.10;;
52574;SDS011;38468;48.114;-1.684;2022-12-18T05:13:08;31.63;;;19.27;;
52574;SDS011;38468;48.114;-1.684;2022-12-18T05:15:08;29.67;;;15.77;;
52574;SDS011;38468;48.114;-1.684;2022-12-18T05:17:09;29.65;;;17.88;;
52574;SDS011;38468;48.114;-1.684;2022-12-18T05:19:10;31.40;;;18.98;;
52574;SDS011;38468;48.114;-1.684;2022-12-18T05:21:10;28.85;;;17.48;;
52574;SDS011;38468;48.114;-1.684;2022-12-18T05:23:11;28.40;;;17.92;;
52574;SDS011;38468;48.114;-1.684;2022-12-18T05:25:12;30.83;;;19.27;;
52574;SDS011;38468;48.114;-1.684;2022-12-18T05:27:12;30.77;;;18.60;;
52574;SDS011;38468;48.114;-1.684;2022-12-18T05:29:13;27.40;;;17.58;;
52574;SDS011;38468;48.114;-1.684;2022-12-18T05:31:14;28.42;;;17.50;;
52574;SDS011;38468;48.114;-1.684;2022-12-18T05:33:14;30.23;;;17.35;;
52574;SDS011;38468;48.114;-1.684;2022-12-18T05:35:16;32.70;;;19.50;;
52574;SDS011;38468;48.114;-1.684;2022-12-18T05:37:16;30.02;;;18.08;;
52574;SDS011;38468;48.114;-1.684;2022-12-18T05:39:17;35.17;;;18.88;;
52574;SDS011;38468;48.114;-1.684;2022-12-18T05:41:18;30.27;;;18.05;;
52574;SDS011;38468;48.114;-1.684;2022-12-18T05:43:19;32.13;;;18.95;;
52574;SDS011;38468;48.114;-1.684;2022-12-18T05:45:21;29.92;;;17.92;;
52574;SDS011;38468;48.114;-1.684;2022-12-18T05:47:22;26.70;;;18.00;;
52574;SDS011;38468;48.114;-1.684;2022-12-18T05:49:23;30.48;;;18.25;;
52574;SDS011;38468;48.114;-1.684;2022-12-18T05:51:23;30.15;;;18.52;;
52574;SDS011;38468;48.114;-1.684;2022-12-18T05:53:24;32.65;;;19.08;;
52574;SDS011;38468;48.114;-1.684;2022-12-18T05:55:24;28.67;;;19.10;;
52574;SDS011;38468;48.114;-1.684;2022-12-18T05:57:26;28.08;;;19.55;;
52574;SDS011;38468;48.114;-1.684;2022-12-18T05:59:26;31.15;;;18.00;;
52574;SDS011;38468;48.114;-1.684;2022-12-18T06:01:27;32.30;;;19.73;;
52574;SDS011;38468;48.114;-1.684;2022-12-18T06:03:28;31.63;;;19.52;;
52574;SDS011;38468;48.114;-1.684;2022-12-18T06:05:28;31.05;;;18.17;;
52574;SDS011;38468;48.114;-1.684;2022-12-18T06:07:34;24.60;;;16.70;;
52574;SDS011;38468;48.114;-1.684;2022-12-18T06:09:34;30.80;;;18.42;;
52574;SDS011;38468;48.114;-1.684;2022-12-18T06:11:35;32.70;;;19.42;;
52574;SDS011;38468;48.114;-1.684;2022-12-18T06:13:37;37.00;;;19.35;;
52574;SDS011;38468;48.114;-1.684;2022-12-18T06:15:38;29.38;;;18.40;;
52574;SDS011;38468;48.114;-1.684;2022-12-18T06:17:38;28.33;;;18.13;;
52574;SDS011;38468;48.114;-1.684;2022-12-18T06:19:39;28.52;;;17.80;;
52574;SDS011;38468;48.114;-1.684;2022-12-18T06:21:40;30.17;;;19.30;;
52574;SDS011;38468;48.114;-1.684;2022-12-18T06:23:40;27.55;;;18.45;;
52574;SDS011;38468;48.114;-1.684;2022-12-18T06:25:41;33.88;;;18.88;;
52574;SDS011;38468;48.114;-1.684;2022-12-18T06:27:42;31.20;;;18.73;;
52574;SDS011;38468;48.114;-1.684;2022-12-18T06:29:43;31.38;;;18.65;;
52574;SDS011;38468;48.114;-1.684;2022-12-18T06:31:43;27.90;;;18.80;;
52574;SDS011;38468;48.114;-1.684;2022-12-18T06:33:44;32.97;;;21.20;;
52574;SDS011;38468;48.114;-1.684;2022-12-18T06:35:45;29.02;;;17.65;;
52574;SDS011;38468;48.114;-1.684;2022-12-18T06:37:45;31.67;;;18.95;;
52574;SDS011;38468;48.114;-1.684;2022-12-18T06:39:46;26.23;;;17.83;;
52574;SDS011;38468;48.114;-1.684;2022-12-18T06:41:47;24.67;;;16.85;;
52574;SDS011;38468;48.114;-1.684;2022-12-18T06:43:47;28.58;;;17.38;;
52574;SDS011;38468;48.114;-1.684;2022-12-18T06:45:48;29.65;;;17.23;;
52574;SDS011;38468;48.114;-1.684;2022-12-18T06:47:52;25.92;;;16.60;;
52574;SDS011;38468;48.114;-1.684;2022-12-18T06:49:56;24.55;;;15.60;;
52574;SDS011;38468;48.114;-1.684;2022-12-18T06:51:57;27.67;;;17.13;;
52574;SDS011;38468;48.114;-1.684;2022-12-18T06:53:57;29.48;;;18.52;;
52574;SDS011;38468;48.114;-1.684;2022-12-18T06:56:05;27.55;;;17.10;;
52574;SDS011;38468;48.114;-1.684;2022-12-18T06:58:07;27.48;;;17.05;;
52574;SDS011;38468;48.114;-1.684;2022-12-18T07:00:07;31.83;;;17.80;;
52574;SDS011;38468;48.114;-1.684;2022-12-18T07:02:10;29.70;;;19.52;;
52574;SDS011;38468;48.114;-1.684;2022-12-18T07:04:12;29.30;;;16.90;;
52574;SDS011;38468;48.114;-1.684;2022-12-18T07:06:17;27.95;;;17.65;;
52574;SDS011;38468;48.114;-1.684;2022-12-18T07:08:19;29.17;;;17.92;;
52574;SDS011;38468;48.114;-1.684;2022-12-18T07:10:20;29.13;;;17.48;;
52574;SDS011;38468;48.114;-1.684;2022-12-18T07:12:21;26.88;;;17.05;;
52574;SDS011;38468;48.114;-1.684;2022-12-18T07:14:21;32.70;;;19.75;;
52574;SDS011;38468;48.114;-1.684;2022-12-18T07:16:22;28.00;;;18.42;;
52574;SDS011;38468;48.114;-1.684;2022-12-18T07:18:23;26.70;;;18.38;;
52574;SDS011;38468;48.114;-1.684;2022-12-18T07:20:23;29.30;;;18.40;;
52574;SDS011;38468;48.114;-1.684;2022-12-18T07:22:27;31.90;;;18.27;;
52574;SDS011;38468;48.114;-1.684;2022-12-18T07:24:27;27.85;;;18.30;;
52574;SDS011;38468;48.114;-1.684;2022-12-18T07:26:28;27.75;;;18.85;;
52574;SDS011;38468;48.114;-1.684;2022-12-18T07:28:29;26.98;;;17.65;;
52574;SDS011;38468;48.114;-1.684;2022-12-18T07:30:30;31.45;;;18.70;;
52574;SDS011;38468;48.114;-1.684;2022-12-18T07:32:31;30.77;;;17.00;;
52574;SDS011;38468;48.114;-1.684;2022-12-18T07:34:32;27.65;;;17.63;;
52574;SDS011;38468;48.114;-1.684;2022-12-18T07:36:32;31.45;;;18.50;;
52574;SDS011;38468;48.114;-1.684;2022-12-18T07:38:33;34.05;;;19.75;;
52574;SDS011;38468;48.114;-1.684;2022-12-18T07:40:35;31.80;;;20.35;;
52574;SDS011;38468;48.114;-1.684;2022-12-18T07:42:35;33.63;;;20.23;;
52574;SDS011;38468;48.114;-1.684;2022-12-18T07:44:37;29.45;;;18.35;;
52574;SDS011;38468;48.114;-1.684;2022-12-18T07:46:37;31.77;;;19.52;;
52574;SDS011;38468;48.114;-1.684;2022-12-18T07:48:39;34.50;;;21.77;;
52574;SDS011;38468;48.114;-1.684;2022-12-18T07:50:40;31.10;;;19.23;;
52574;SDS011;38468;48.114;-1.684;2022-12-18T07:52:41;31.88;;;20.55;;
52574;SDS011;38468;48.114;-1.684;2022-12-18T07:54:41;38.33;;;19.65;;
52574;SDS011;38468;48.114;-1.684;2022-12-18T07:56:42;30.17;;;17.52;;
52574;SDS011;38468;48.114;-1.684;2022-12-18T07:58:43;29.90;;;18.13;;
52574;SDS011;38468;48.114;-1.684;2022-12-18T08:00:44;31.33;;;20.35;;
52574;SDS011;38468;48.114;-1.684;2022-12-18T08:02:44;26.38;;;18.08;;
52574;SDS011;38468;48.114;-1.684;2022-12-18T08:04:45;28.65;;;18.35;;
52574;SDS011;38468;48.114;-1.684;2022-12-18T08:06:46;25.17;;;16.98;;
52574;SDS011;38468;48.114;-1.684;2022-12-18T08:08:47;29.50;;;19.23;;
52574;SDS011;38468;48.114;-1.684;2022-12-18T08:10:47;29.80;;;18.65;;
52574;SDS011;38468;48.114;-1.684;2022-12-18T08:12:48;30.17;;;19.60;;
52574;SDS011;38468;48.114;-1.684;2022-12-18T08:16:51;29.00;;;18.20;;
52574;SDS011;38468;48.114;-1.684;2022-12-18T08:18:52;31.20;;;19.25;;
52574;SDS011;38468;48.114;-1.684;2022-12-18T08:20:53;30.80;;;18.23;;
52574;SDS011;38468;48.114;-1.684;2022-12-18T08:22:55;34.38;;;20.13;;
52574;SDS011;38468;48.114;-1.684;2022-12-18T08:24:57;35.58;;;19.60;;
52574;SDS011;38468;48.114;-1.684;2022-12-18T08:26:58;29.67;;;19.80;;
52574;SDS011;38468;48.114;-1.684;2022-12-18T08:28:59;34.63;;;19.73;;
52574;SDS011;38468;48.114;-1.684;2022-12-18T08:31:00;31.17;;;21.75;;
52574;SDS011;38468;48.114;-1.684;2022-12-18T08:33:01;27.48;;;18.00;;
52574;SDS011;38468;48.114;-1.684;2022-12-18T08:35:03;28.42;;;18.13;;
52574;SDS011;38468;48.114;-1.684;2022-12-18T08:37:04;30.25;;;19.73;;
52574;SDS011;38468;48.114;-1.684;2022-12-18T08:39:04;32.58;;;21.33;;
52574;SDS011;38468;48.114;-1.684;2022-12-18T08:41:06;28.63;;;17.55;;
52574;SDS011;38468;48.114;-1.684;2022-12-18T08:43:11;31.45;;;17.95;;
52574;SDS011;38468;48.114;-1.684;2022-12-18T08:45:30;25.80;;;19.30;;
52574;SDS011;38468;48.114;-1.684;2022-12-18T08:47:31;30.10;;;18.92;;
52574;SDS011;38468;48.114;-1.684;2022-12-18T08:49:32;33.42;;;21.17;;
52574;SDS011;38468;48.114;-1.684;2022-12-18T08:51:33;33.30;;;19.83;;
52574;SDS011;38468;48.114;-1.684;2022-12-18T08:53:34;30.45;;;20.58;;
52574;SDS011;38468;48.114;-1.684;2022-12-18T08:55:38;33.88;;;22.17;;
52574;SDS011;38468;48.114;-1.684;2022-12-18T08:57:39;37.00;;;20.85;;
52574;SDS011;38468;48.114;-1.684;2022-12-18T08:59:39;29.85;;;19.45;;
52574;SDS011;38468;48.114;-1.684;2022-12-18T09:01:40;25.45;;;18.70;;
52574;SDS011;38468;48.114;-1.684;2022-12-18T09:03:41;34.75;;;21.02;;
52574;SDS011;38468;48.114;-1.684;2022-12-18T09:05:41;36.38;;;21.67;;
52574;SDS011;38468;48.114;-1.684;2022-12-18T09:07:42;35.15;;;20.40;;
52574;SDS011;38468;48.114;-1.684;2022-12-18T09:09:43;34.35;;;20.92;;
52574;SDS011;38468;48.114;-1.684;2022-12-18T09:11:44;34.30;;;20.17;;
52574;SDS011;38468;48.114;-1.684;2022-12-18T09:13:45;31.73;;;19.00;;
52574;SDS011;38468;48.114;-1.684;2022-12-18T09:15:46;35.47;;;19.98;;
52574;SDS011;38468;48.114;-1.684;2022-12-18T09:17:48;35.40;;;21.13;;
52574;SDS011;38468;48.114;-1.684;2022-12-18T09:19:50;31.70;;;20.30;;
52574;SDS011;38468;48.114;-1.684;2022-12-18T09:21:50;42.03;;;23.83;;
52574;SDS011;38468;48.114;-1.684;2022-12-18T09:23:52;37.45;;;24.70;;
52574;SDS011;38468;48.114;-1.684;2022-12-18T09:28:02;41.83;;;23.20;;
52574;SDS011;38468;48.114;-1.684;2022-12-18T09:30:04;36.88;;;21.42;;
52574;SDS011;38468;48.114;-1.684;2022-12-18T09:32:05;39.92;;;21.75;;
52574;SDS011;38468;48.114;-1.684;2022-12-18T09:34:06;34.45;;;23.00;;
52574;SDS011;38468;48.114;-1.684;2022-12-18T09:36:08;38.78;;;21.90;;
52574;SDS011;38468;48.114;-1.684;2022-12-18T09:38:12;34.65;;;22.10;;
52574;SDS011;38468;48.114;-1.684;2022-12-18T09:40:18;37.30;;;22.88;;
52574;SDS011;38468;48.114;-1.684;2022-12-18T09:42:21;42.25;;;24.63;;
52574;SDS011;38468;48.114;-1.684;2022-12-18T09:44:24;35.55;;;21.88;;
52574;SDS011;38468;48.114;-1.684;2022-12-18T09:46:41;43.80;;;23.85;;
52574;SDS011;38468;48.114;-1.684;2022-12-18T09:48:52;38.55;;;24.45;;
52574;SDS011;38468;48.114;-1.684;2022-12-18T09:51:00;39.83;;;23.23;;
52574;SDS011;38468;48.114;-1.684;2022-12-18T09:53:06;42.33;;;23.92;;
52574;SDS011;38468;48.114;-1.684;2022-12-18T09:55:38;33.85;;;21.27;;
52574;SDS011;38468;48.114;-1.684;2022-12-18T09:57:42;37.85;;;22.40;;
52574;SDS011;38468;48.114;-1.684;2022-12-18T09:59:54;39.05;;;23.23;;
52574;SDS011;38468;48.114;-1.684;2022-12-18T10:01:58;47.70;;;28.95;;
52574;SDS011;38468;48.114;-1.684;2022-12-18T10:03:59;44.20;;;23.15;;
52574;SDS011;38468;48.114;-1.684;2022-12-18T10:12:49;41.53;;;24.45;;
52574;SDS011;38468;48.114;-1.684;2022-12-18T10:15:06;42.03;;;24.05;;
52574;SDS011;38468;48.114;-1.684;2022-12-18T10:17:24;38.35;;;26.15;;
52574;SDS011;38468;48.114;-1.684;2022-12-18T10:19:47;45.72;;;25.35;;
52574;SDS011;38468;48.114;-1.684;2022-12-18T10:21:58;37.88;;;22.50;;
52574;SDS011;38468;48.114;-1.684;2022-12-18T10:26:33;41.72;;;23.15;;
52574;SDS011;38468;48.114;-1.684;2022-12-18T10:28:35;43.15;;;25.90;;
52574;SDS011;38468;48.114;-1.684;2022-12-18T10:30:39;39.72;;;22.50;;
52574;SDS011;38468;48.114;-1.684;2022-12-18T10:32:41;40.65;;;24.67;;
52574;SDS011;38468;48.114;-1.684;2022-12-18T10:34:44;41.60;;;24.52;;
52574;SDS011;38468;48.114;-1.684;2022-12-18T10:36:47;45.58;;;23.25;;
52574;SDS011;38468;48.114;-1.684;2022-12-18T10:38:49;45.20;;;25.50;;
52574;SDS011;38468;48.114;-1.684;2022-12-18T10:45:18;44.70;;;24.20;;
52574;SDS011;38468;48.114;-1.684;2022-12-18T10:47:24;42.03;;;22.65;;
52574;SDS011;38468;48.114;-1.684;2022-12-18T10:49:27;47.42;;;26.88;;
52574;SDS011;38468;48.114;-1.684;2022-12-18T10:51:33;40.83;;;24.75;;
52574;SDS011;38468;48.114;-1.684;2022-12-18T10:53:36;41.63;;;23.88;;
52574;SDS011;38468;48.114;-1.684;2022-12-18T10:55:38;44.40;;;24.70;;
52574;SDS011;38468;48.114;-1.684;2022-12-18T10:57:47;40.53;;;24.15;;
52574;SDS011;38468;48.114;-1.684;2022-12-18T10:59:54;40.75;;;23.38;;
52574;SDS011;38468;48.114;-1.684;2022-12-18T11:01:57;40.50;;;22.85;;
52574;SDS011;38468;48.114;-1.684;2022-12-18T11:04:00;39.70;;;23.40;;
52574;SDS011;38468;48.114;-1.684;2022-12-18T11:06:14;42.88;;;25.77;;
52574;SDS011;38468;48.114;-1.684;2022-12-18T11:08:19;38.33;;;23.45;;
52574;SDS011;38468;48.114;-1.684;2022-12-18T11:10:28;34.25;;;22.83;;
52574;SDS011;38468;48.114;-1.684;2022-12-18T11:12:35;36.35;;;22.92;;
52574;SDS011;38468;48.114;-1.684;2022-12-18T11:14:42;38.45;;;24.02;;
52574;SDS011;38468;48.114;-1.684;2022-12-18T11:16:49;37.92;;;21.40;;
52574;SDS011;38468;48.114;-1.684;2022-12-18T11:18:52;43.78;;;25.35;;
52574;SDS011;38468;48.114;-1.684;2022-12-18T11:20:57;36.70;;;23.15;;
52574;SDS011;38468;48.114;-1.684;2022-12-18T11:23:12;37.33;;;23.60;;
52574;SDS011;38468;48.114;-1.684;2022-12-18T11:27:16;37.63;;;22.35;;
52574;SDS011;38468;48.114;-1.684;2022-12-18T11:29:22;39.67;;;24.10;;
52574;SDS011;38468;48.114;-1.684;2022-12-18T11:31:27;39.42;;;25.15;;
52574;SDS011;38468;48.114;-1.684;2022-12-18T11:33:31;34.03;;;23.38;;
52574;SDS011;38468;48.114;-1.684;2022-12-18T11:37:48;35.65;;;22.95;;
52574;SDS011;38468;48.114;-1.684;2022-12-18T11:40:02;37.85;;;24.13;;
52574;SDS011;38468;48.114;-1.684;2022-12-18T11:44:11;42.55;;;23.98;;
52574;SDS011;38468;48.114;-1.684;2022-12-18T11:46:37;33.15;;;21.73;;
52574;SDS011;38468;48.114;-1.684;2022-12-18T11:48:58;41.25;;;25.05;;
52574;SDS011;38468;48.114;-1.684;2022-12-18T11:51:09;37.78;;;22.17;;
52574;SDS011;38468;48.114;-1.684;2022-12-18T11:53:26;39.60;;;25.98;;
52574;SDS011;38468;48.114;-1.684;2022-12-18T11:55:28;33.78;;;23.65;;
52574;SDS011;38468;48.114;-1.684;2022-12-18T11:57:39;37.65;;;24.88;;
52574;SDS011;38468;48.114;-1.684;2022-12-18T12:08:57;38.50;;;21.90;;
52574;SDS011;38468;48.114;-1.684;2022-12-18T12:13:43;37.60;;;24.67;;
52574;SDS011;38468;48.114;-1.684;2022-12-18T12:18:27;34.92;;;22.02;;
52574;SDS011;38468;48.114;-1.684;2022-12-18T12:20:55;36.08;;;22.95;;
52574;SDS011;38468;48.114;-1.684;2022-12-18T12:23:16;36.83;;;22.38;;
52574;SDS011;38468;48.114;-1.684;2022-12-18T12:30:00;36.17;;;21.95;;
52574;SDS011;38468;48.114;-1.684;2022-12-18T12:34:15;35.50;;;23.15;;
52574;SDS011;38468;48.114;-1.684;2022-12-18T12:36:22;32.30;;;22.70;;
52574;SDS011;38468;48.114;-1.684;2022-12-18T12:38:28;30.13;;;21.60;;
52574;SDS011;38468;48.114;-1.684;2022-12-18T12:40:31;28.73;;;21.60;;
52574;SDS011;38468;48.114;-1.684;2022-12-18T12:42:51;33.40;;;22.00;;
52574;SDS011;38468;48.114;-1.684;2022-12-18T12:45:16;44.72;;;24.70;;
52574;SDS011;38468;48.114;-1.684;2022-12-18T12:47:23;36.97;;;25.17;;
52574;SDS011;38468;48.114;-1.684;2022-12-18T12:49:29;32.50;;;22.35;;
52574;SDS011;38468;48.114;-1.684;2022-12-18T12:51:36;36.35;;;22.92;;
52574;SDS011;38468;48.114;-1.684;2022-12-18T12:53:40;33.80;;;22.52;;
52574;SDS011;38468;48.114;-1.684;2022-12-18T12:55:41;35.10;;;22.67;;
52574;SDS011;38468;48.114;-1.684;2022-12-18T12:57:45;32.40;;;21.13;;
52574;SDS011;38468;48.114;-1.684;2022-12-18T13:04:45;33.70;;;22.65;;
52574;SDS011;38468;48.114;-1.684;2022-12-18T13:09:19;41.75;;;25.13;;
52574;SDS011;38468;48.114;-1.684;2022-12-18T13:11:31;29.83;;;22.50;;
52574;SDS011;38468;48.114;-1.684;2022-12-18T13:13:55;37.67;;;24.38;;